Time;durP1;ratioP1;P1;durP2;ratioP2;P2;SDS_P1;SDS_P2;PMS_P1;PMS_P2;Temp;Humidity;BMP_temperature;BMP_pressure;BME280_temperature;BME280_humidity;BME280_pressure;Samples;Min_cycle;Max_cycle;Signal;HPM_P1;HPM_P2
2022/07/17 00:00:13;;;;;;;;;4.00;2.00;;;;;24.81;51.86;102123.22;6286206;22;45796;-95
2022/07/17 00:02:39;;;;;;;;;3.00;2.00;;;;;24.81;51.98;102124.13;6285052;22;45233;-96
2022/07/17 00:05:06;;;;;;;;;1.00;1.00;;;;;24.71;51.83;102125.84;6284859;22;45321;-95
2022/07/17 00:07:31;;;;;;;;;5.00;2.00;;;;;24.78;51.83;102138.44;6283543;22;48179;-95
2022/07/17 00:09:57;;;;;;;;;4.00;2.67;;;;;24.71;52.18;102128.53;6284619;22;45245;-96
2022/07/17 00:12:24;;;;;;;;;3.67;2.00;;;;;24.73;52.45;102128.53;6284484;22;45289;-96
2022/07/17 00:14:50;;;;;;;;;1.67;1.67;;;;;24.60;52.24;102116.78;6288368;22;44848;-95
2022/07/17 00:17:15;;;;;;;;;3.00;2.00;;;;;24.53;52.36;102106.00;6314886;22;46975;-96
2022/07/17 00:19:42;;;;;;;;;3.00;2.00;;;;;24.62;52.54;102140.06;6285388;22;45301;-95
2022/07/17 00:22:07;;;;;;;;;2.00;2.00;;;;;24.64;52.32;102153.50;6282177;22;45115;-95
2022/07/17 00:24:33;;;;;;;;;2.00;2.00;;;;;24.43;52.21;102120.25;6311123;22;45504;-95
2022/07/17 00:26:58;;;;;;;;;1.00;1.00;;;;;24.42;52.21;102126.47;6284986;22;47329;-95
2022/07/17 00:29:25;;;;;;;;;1.00;1.00;;;;;24.37;53.05;102122.84;6310471;22;45427;-96
2022/07/17 00:31:51;;;;;;;;;2.00;2.00;;;;;24.50;52.60;102139.97;6291336;22;44776;-96
2022/07/17 00:34:16;;;;;;;;;2.00;2.00;;;;;24.38;52.47;102140.78;6262120;22;45538;-96
2022/07/17 00:36:43;;;;;;;;;1.67;1.00;;;;;24.31;52.57;102129.06;6312658;22;45419;-96
2022/07/17 00:39:09;;;;;;;;;3.00;2.00;;;;;24.27;52.62;102114.75;6309412;22;45285;-95
2022/07/17 00:41:34;;;;;;;;;2.33;2.33;;;;;24.24;53.13;102120.03;6289629;22;44792;-95
2022/07/17 00:44:11;;;;;;;;;2.00;2.00;;;;;24.23;52.87;102112.84;6291421;22;45373;-94
2022/07/17 00:46:38;;;;;;;;;2.67;2.00;;;;;24.18;52.84;102112.81;6292209;22;48007;-95
2022/07/17 00:49:05;;;;;;;;;2.67;2.67;;;;;24.27;53.00;102127.25;6291235;22;45807;-95
2022/07/17 00:51:32;;;;;;;;;1.00;1.00;;;;;24.31;53.07;102142.47;6292709;22;45299;-96
2022/07/17 00:53:59;;;;;;;;;2.67;1.33;;;;;24.28;53.21;102142.44;6291245;22;45303;-96
2022/07/17 00:56:27;;;;;;;;;1.67;1.67;;;;;24.14;53.31;102112.78;6291415;22;47583;-95
2022/07/17 00:58:52;;;;;;;;;2.33;1.67;;;;;24.21;53.18;102145.03;6290144;22;45395;-96
2022/07/17 01:01:18;;;;;;;;;1.00;1.00;;;;;24.03;53.14;102118.91;6287123;22;45146;-95
2022/07/17 01:03:43;;;;;;;;;1.00;1.00;;;;;24.03;53.47;102126.97;6311729;22;45191;-95
2022/07/17 01:06:09;;;;;;;;;2.00;1.00;;;;;24.12;53.48;102139.59;6290987;22;47522;-96
2022/07/17 01:08:36;;;;;;;;;1.67;1.00;;;;;24.03;53.61;102137.69;6290875;22;45310;-96
2022/07/17 01:11:02;;;;;;;;;4.00;2.00;;;;;23.95;53.45;102124.19;6291178;22;45368;-96
2022/07/17 01:13:27;;;;;;;;;2.00;2.00;;;;;23.97;53.86;102125.09;6288231;22;45543;-96
2022/07/17 01:15:54;;;;;;;;;1.00;1.00;;;;;23.91;53.64;102118.78;6316239;22;46971;-96
2022/07/17 01:18:20;;;;;;;;;1.00;1.00;;;;;23.86;54.03;102113.38;6261721;22;45439;-96
2022/07/17 01:20:48;;;;;;;;;3.00;3.00;;;;;23.86;53.68;102116.94;6293349;22;44751;-96
2022/07/17 01:23:16;;;;;;;;;3.00;3.00;;;;;23.80;53.78;102116.88;6287944;22;45277;-96
2022/07/17 01:25:43;;;;;;;;;4.67;3.67;;;;;23.85;53.78;102125.88;6319141;22;45253;-96
2022/07/17 01:28:08;;;;;;;;;2.33;1.00;;;;;23.86;53.86;102133.03;6287195;22;45273;-96
2022/07/17 01:30:34;;;;;;;;;1.00;1.00;;;;;23.74;54.52;102117.69;6309840;22;45387;-96
2022/07/17 01:32:59;;;;;;;;;2.67;2.00;;;;;23.84;54.19;102136.56;6309650;22;45554;-95
2022/07/17 01:35:25;;;;;;;;;2.00;2.00;;;;;23.77;54.24;102133.84;6282097;22;46938;-95
2022/07/17 01:37:50;;;;;;;;;2.00;2.00;;;;;23.74;54.33;102122.16;6286304;22;45298;-95
2022/07/17 01:40:17;;;;;;;;;4.33;3.00;;;;;23.60;53.94;102106.84;6311128;22;45313;-96
2022/07/17 01:42:44;;;;;;;;;4.00;3.00;;;;;23.58;54.69;102113.06;6282366;22;44876;-96
2022/07/17 01:45:11;;;;;;;;;1.67;1.00;;;;;23.59;54.60;102110.38;6287009;22;47027;-95
2022/07/17 01:47:37;;;;;;;;;4.67;3.67;;;;;23.50;54.42;102099.56;6288808;22;45385;-95
2022/07/17 01:50:03;;;;;;;;;2.67;1.00;;;;;23.50;54.69;102100.44;6288724;22;45329;-95
2022/07/17 01:52:29;;;;;;;;;2.00;2.00;;;;;23.48;54.69;102103.94;6284999;22;45421;-96
2022/07/17 01:54:54;;;;;;;;;3.00;2.33;;;;;23.53;54.43;102111.19;6281915;22;47136;-95
2022/07/17 01:57:20;;;;;;;;;2.67;1.67;;;;;23.42;55.54;102096.75;6313726;22;45253;-96
2022/07/17 01:59:46;;;;;;;;;1.00;1.00;;;;;23.46;55.23;102103.94;6283567;22;45375;-96
2022/07/17 02:02:15;;;;;;;;;2.33;2.33;;;;;23.33;55.10;102089.47;6290552;22;45332;-96
2022/07/17 02:04:41;;;;;;;;;2.33;2.00;;;;;23.28;55.22;102080.47;6292238;22;47985;-96
2022/07/17 02:07:08;;;;;;;;;3.33;3.33;;;;;23.32;55.24;102093.91;6286336;22;45307;-96
2022/07/17 02:09:34;;;;;;;;;2.33;2.33;;;;;23.38;55.48;102108.28;6289381;22;44705;-96
2022/07/17 02:12:02;;;;;;;;;5.00;2.00;;;;;23.24;55.45;102098.31;6260240;22;45357;-95
2022/07/17 02:14:27;;;;;;;;;2.00;2.00;;;;;23.21;55.45;102091.13;6289200;22;48511;-96
2022/07/17 02:16:53;;;;;;;;;4.00;3.00;;;;;23.23;55.36;102096.50;6290813;22;45128;-96
2022/07/17 02:19:19;;;;;;;;;2.67;1.67;;;;;23.20;55.68;102101.78;6317123;22;45247;-96
2022/07/17 02:21:44;;;;;;;;;4.00;3.00;;;;;23.14;55.54;102091.88;6286246;22;45190;-96
2022/07/17 02:24:10;;;;;;;;;2.00;1.00;;;;;23.04;55.58;102082.81;6316251;22;46833;-95
2022/07/17 02:26:35;;;;;;;;;2.00;1.67;;;;;23.06;55.79;102089.13;6321893;22;45150;-96
2022/07/17 02:29:01;;;;;;;;;1.00;1.00;;;;;22.95;56.21;102078.25;6292090;22;45263;-96
2022/07/17 02:31:28;;;;;;;;;3.00;3.00;;;;;22.89;55.85;102070.13;6294704;22;45473;-96
2022/07/17 02:33:53;;;;;;;;;2.00;2.00;;;;;23.03;55.89;102104.25;6321698;22;45633;-95
2022/07/17 02:36:19;;;;;;;;;1.00;1.00;;;;;22.83;56.33;102078.94;6268050;22;45215;-95
2022/07/17 02:38:45;;;;;;;;;1.00;1.00;;;;;22.89;56.11;102091.53;6295088;22;44780;-96
2022/07/17 02:41:10;;;;;;;;;2.00;2.00;;;;;22.80;56.06;102081.59;6321297;22;45265;-96
2022/07/17 02:43:36;;;;;;;;;4.67;3.67;;;;;22.81;56.21;102087.84;6292115;22;47193;-95
2022/07/17 02:46:02;;;;;;;;;2.00;2.00;;;;;22.86;56.03;102096.84;6288609;22;45459;-95
2022/07/17 02:48:29;;;;;;;;;4.00;3.00;;;;;22.72;56.49;102067.19;6286473;22;44649;-96
2022/07/17 02:50:54;;;;;;;;;8.00;5.67;;;;;22.79;56.41;102087.81;6289105;22;44807;-95
2022/07/17 02:53:21;;;;;;;;;5.00;5.00;;;;;22.65;56.40;102069.72;6292265;22;47167;-95
2022/07/17 02:55:46;;;;;;;;;3.00;3.00;;;;;22.63;56.53;102074.16;6265610;22;45476;-95
2022/07/17 02:58:12;;;;;;;;;4.00;4.00;;;;;22.60;56.50;102081.25;6288202;22;45454;-96
2022/07/17 03:00:42;;;;;;;;;4.33;4.33;;;;;22.56;56.91;102074.94;6289013;22;45364;-96
2022/07/17 03:03:09;;;;;;;;;4.67;4.33;;;;;22.62;56.58;102084.84;6287135;22;45383;-96
2022/07/17 03:05:34;;;;;;;;;5.33;4.00;;;;;22.62;57.04;102090.22;6281686;22;45375;-95
2022/07/17 03:08:00;;;;;;;;;3.67;3.67;;;;;22.59;56.92;102091.06;6287842;22;45197;-96
2022/07/17 03:10:25;;;;;;;;;5.00;5.00;;;;;22.55;57.01;102090.09;6318721;22;45204;-95
2022/07/17 03:12:50;;;;;;;;;6.00;6.00;;;;;22.49;56.96;102081.06;6317104;22;47991;-96
2022/07/17 03:15:18;;;;;;;;;9.00;6.33;;;;;22.42;57.63;102069.38;6291318;22;45302;-94
2022/07/17 03:17:45;;;;;;;;;6.00;6.00;;;;;22.39;57.50;102067.56;6290468;22;45319;-96
2022/07/17 03:20:11;;;;;;;;;7.67;7.00;;;;;22.35;57.35;102064.78;6293595;22;45598;-96
2022/07/17 03:22:37;;;;;;;;;7.67;6.67;;;;;22.41;57.54;102079.19;6264756;22;47178;-96
2022/07/17 03:25:03;;;;;;;;;7.33;6.33;;;;;22.30;57.26;102065.59;6287865;22;45244;-96
2022/07/17 03:27:28;;;;;;;;;8.00;8.00;;;;;22.28;57.24;102077.16;6292000;22;45297;-95
2022/07/17 03:29:54;;;;;;;;;7.00;7.00;;;;;22.32;57.36;102087.91;6289424;22;45703;-96
2022/07/17 03:32:20;;;;;;;;;5.00;5.00;;;;;22.19;57.72;102073.44;6292759;22;47468;-95
2022/07/17 03:34:47;;;;;;;;;9.33;8.33;;;;;22.17;57.45;102077.84;6295849;22;45198;-96
2022/07/17 03:37:14;;;;;;;;;7.33;7.33;;;;;22.15;57.55;102078.69;6295177;22;45339;-96
2022/07/17 03:39:40;;;;;;;;;7.33;7.33;;;;;22.29;57.62;102108.38;6319960;22;44804;-96
2022/07/17 03:42:08;;;;;;;;;12.00;11.00;;;;;22.13;57.67;102096.50;6317808;22;47412;-95
2022/07/17 03:44:34;;;;;;;;;10.33;9.67;;;;;22.09;57.99;102091.09;6316709;22;45174;-95
2022/07/17 03:47:00;;;;;;;;;16.00;13.00;;;;;22.13;57.99;102100.06;6290993;22;45356;-96
2022/07/17 03:49:25;;;;;;;;;11.75;11.75;;;;;22.03;57.68;102091.00;6314319;22;45273;-96
2022/07/17 03:51:51;;;;;;;;;15.67;14.33;;;;;21.99;57.87;102087.34;6290736;22;47567;-96
2022/07/17 03:54:16;;;;;;;;;13.67;12.00;;;;;22.02;57.97;102098.97;6288158;22;45210;-96
2022/07/17 03:56:42;;;;;;;;;15.67;11.33;;;;;22.00;58.17;102093.59;6286947;22;45350;-96
2022/07/17 03:59:07;;;;;;;;;13.00;9.67;;;;;21.96;58.29;102078.34;6314544;22;44708;-96
2022/07/17 04:01:34;;;;;;;;;9.00;8.00;;;;;21.91;58.14;102072.00;6317700;22;45577;-96
2022/07/17 04:04:00;;;;;;;;;11.33;9.00;;;;;22.03;58.18;102096.34;6293017;22;44755;-96
2022/07/17 04:06:25;;;;;;;;;6.67;5.00;;;;;21.89;58.70;102080.03;6292720;22;45447;-94
2022/07/17 04:08:51;;;;;;;;;9.00;7.33;;;;;21.82;58.52;102062.94;6290653;22;44947;-95
2022/07/17 04:11:16;;;;;;;;;7.00;6.00;;;;;21.83;58.71;102069.16;6292523;22;48054;-95
2022/07/17 04:13:42;;;;;;;;;9.67;7.00;;;;;21.82;58.23;102065.63;6318339;22;44784;-96
2022/07/17 04:16:07;;;;;;;;;6.00;6.00;;;;;21.95;58.47;102096.19;6291168;22;44669;-95
2022/07/17 04:18:37;;;;;;;;;7.00;5.00;;;;;21.79;58.71;102076.22;6292295;22;45202;-95
2022/07/17 04:21:09;;;;;;;;;6.00;6.00;;;;;21.77;58.60;102084.22;6265788;22;47510;-96
2022/07/17 04:23:35;;;;;;;;;7.33;5.00;;;;;21.87;58.94;102111.16;6284747;22;45367;-95
2022/07/17 04:26:02;;;;;;;;;5.33;4.00;;;;;21.87;58.73;102116.50;6289398;22;45281;-95
2022/07/17 04:28:27;;;;;;;;;5.00;5.00;;;;;21.92;59.04;102125.53;6288270;22;45392;-96
2022/07/17 04:30:53;;;;;;;;;4.00;4.00;;;;;21.74;59.23;102093.94;6240966;22;46964;-95
2022/07/17 04:33:18;;;;;;;;;3.00;2.00;;;;;21.92;59.10;102124.63;6291909;22;45388;-96
2022/07/17 04:36:04;;;;;;;;;6.33;3.00;;;;;21.92;58.93;102130.88;6288902;22;45353;-96
2022/07/17 04:38:31;;;;;;;;;2.33;2.33;;;;;21.82;59.08;102113.72;6324754;22;44744;-96
2022/07/17 04:40:57;;;;;;;;;3.00;2.00;;;;;21.74;59.16;102109.97;6294924;22;45617;-96
2022/07/17 04:43:23;;;;;;;;;4.67;2.00;;;;;21.79;59.02;102128.78;6318127;22;45860;-96
2022/07/17 04:45:48;;;;;;;;;4.67;2.67;;;;;21.79;59.37;102124.34;6289718;22;45198;-95
2022/07/17 04:48:14;;;;;;;;;4.00;2.33;;;;;21.80;59.66;102127.91;6268527;22;45403;-96
2022/07/17 04:50:40;;;;;;;;;2.00;2.00;;;;;21.90;59.51;102142.41;6269463;22;47214;-95
2022/07/17 04:53:05;;;;;;;;;3.00;2.00;;;;;21.92;59.50;102133.53;6321250;22;45281;-96
2022/07/17 04:55:32;;;;;;;;;2.33;2.33;;;;;21.90;60.03;102123.69;6273254;22;44634;-96
2022/07/17 04:57:58;;;;;;;;;1.67;1.67;;;;;21.99;59.49;102146.16;6270994;22;44852;-96
2022/07/17 05:00:23;;;;;;;;;2.00;2.00;;;;;21.90;59.48;102118.34;6298133;22;47385;-96
2022/07/17 05:02:49;;;;;;;;;1.00;1.00;;;;;21.95;59.28;102119.34;6294651;22;44776;-95
2022/07/17 05:05:15;;;;;;;;;2.00;2.00;;;;;22.08;59.51;102145.44;6296346;22;45320;-96
2022/07/17 05:07:40;;;;;;;;;1.67;1.67;;;;;21.98;59.30;102127.44;6295881;22;45435;-96
2022/07/17 05:10:09;;;;;;;;;5.33;4.00;;;;;22.16;59.48;102152.72;6321939;22;47018;-95
2022/07/17 05:12:43;;;;;;;;;2.00;2.00;;;;;22.24;58.97;102152.84;6299617;22;45327;-96
2022/07/17 05:15:11;;;;;;;;;3.33;3.33;;;;;22.17;59.44;102131.34;6276181;22;44705;-96
2022/07/17 05:17:39;;;;;;;;;0.00;0.00;;;;;22.26;59.16;102143.09;6302040;22;45495;-96
2022/07/17 05:20:21;;;;;;;;;2.00;1.00;;;;;22.30;59.19;102142.25;6301812;22;46985;-96
2022/07/17 05:22:54;;;;;;;;;1.33;1.33;;;;;22.32;59.00;102138.75;6329520;22;44771;-96
2022/07/17 05:25:26;;;;;;;;;4.67;2.00;;;;;22.40;59.15;102135.28;6250561;22;45156;-96
2022/07/17 05:28:02;;;;;;;;;1.00;1.00;;;;;22.48;59.20;102136.34;6277771;22;44752;-96
2022/07/17 05:30:30;;;;;;;;;1.00;1.00;;;;;22.53;59.13;102136.41;6275360;22;46640;-96
2022/07/17 05:32:56;;;;;;;;;2.33;2.33;;;;;22.62;58.80;102135.69;6293752;22;45174;-95
2022/07/17 05:35:22;;;;;;;;;2.00;2.00;;;;;22.72;58.66;102145.72;6295910;22;45332;-96
2022/07/17 05:37:49;;;;;;;;;1.00;1.00;;;;;22.74;58.95;102137.69;6298090;22;44837;-96
2022/07/17 05:40:15;;;;;;;;;1.33;1.33;;;;;22.81;59.05;102138.69;6325377;22;45162;-96
2022/07/17 05:42:42;;;;;;;;;2.00;0.67;;;;;22.97;58.40;102156.81;6296386;22;45382;-96
2022/07/17 05:45:11;;;;;;;;;2.67;2.00;;;;;22.93;58.40;102146.94;6299932;22;44875;-96
2022/07/17 05:47:37;;;;;;;;;1.67;1.67;;;;;23.10;58.44;102165.94;6298006;22;44752;-96
2022/07/17 05:50:03;;;;;;;;;3.00;2.00;;;;;23.14;58.12;102161.50;6324102;22;47485;-96
2022/07/17 05:52:35;;;;;;;;;2.33;1.00;;;;;23.06;58.17;102141.78;6323936;22;44732;-96
2022/07/17 05:55:19;;;;;;;;;2.00;1.00;;;;;23.28;57.70;102174.22;6325931;22;45192;-96
2022/07/17 05:57:53;;;;;;;;;3.00;1.67;;;;;23.15;58.19;102157.06;6325276;22;44931;-96
2022/07/17 06:00:28;;;;;;;;;1.33;1.33;;;;;23.19;58.07;102154.44;6321655;22;45714;-95
2022/07/17 06:02:59;;;;;;;;;2.00;2.00;;;;;23.26;58.01;102159.91;6297148;22;44604;-96
2022/07/17 06:05:28;;;;;;;;;2.00;2.00;;;;;23.32;58.24;102160.00;6300196;22;44693;-95
2022/07/17 06:07:56;;;;;;;;;3.00;3.00;;;;;23.39;58.07;102156.53;6298341;22;45183;-96
2022/07/17 06:10:23;;;;;;;;;2.00;2.00;;;;;23.52;57.58;102168.38;6298346;22;47316;-96
2022/07/17 06:12:49;;;;;;;;;2.00;2.00;;;;;23.54;57.58;102158.56;6296798;22;45324;-96
2022/07/17 06:15:20;;;;;;;;;3.00;3.00;;;;;23.60;57.22;102156.84;6325044;22;45213;-96
2022/07/17 06:17:46;;;;;;;;;2.00;2.00;;;;;23.71;57.60;102173.94;6268989;22;45155;-96
2022/07/17 06:20:13;;;;;;;;;2.00;1.67;;;;;23.82;57.25;102173.19;6288139;22;47220;-96
2022/07/17 06:22:40;;;;;;;;;2.00;2.00;;;;;23.77;57.10;102154.38;6290802;22;45367;-96
2022/07/17 06:25:06;;;;;;;;;3.00;1.00;;;;;23.95;57.04;102174.25;6293505;22;44728;-96
2022/07/17 06:27:31;;;;;;;;;3.00;3.00;;;;;23.96;57.49;102162.66;6293283;22;44646;-96
2022/07/17 06:29:57;;;;;;;;;2.00;2.00;;;;;23.96;57.11;102149.25;6289208;22;47284;-96
2022/07/17 06:32:23;;;;;;;;;3.00;2.67;;;;;24.11;56.96;102164.59;6294488;22;45046;-96
2022/07/17 06:34:48;;;;;;;;;3.00;2.00;;;;;24.28;57.20;102183.59;6293862;22;45147;-96
2022/07/17 06:37:13;;;;;;;;;4.00;3.67;;;;;24.21;56.96;102152.19;6293371;22;44903;-96
2022/07/17 06:39:39;;;;;;;;;5.00;3.00;;;;;24.24;57.12;102149.53;6321534;22;47119;-96
2022/07/17 06:42:48;;;;;;;;;;;;;;;;;;;;;
2022/07/17 06:45:55;;;;;;;;;3.33;2.33;;;;;24.46;56.56;102159.63;6307712;22;68138;-96
2022/07/17 06:49:17;;;;;;;;;3.00;3.00;;;;;24.44;56.47;102132.75;6125582;23;45473;-96
2022/07/17 06:51:45;;;;;;;;;2.00;2.00;;;;;24.60;56.44;102157.97;6123579;22;46918;-95
2022/07/17 06:54:12;;;;;;;;;2.00;2.00;;;;;24.56;56.36;102156.13;6117443;23;45555;-95
2022/07/17 06:56:37;;;;;;;;;3.33;2.00;;;;;24.66;56.29;102162.50;6092522;23;45297;-92
2022/07/17 06:59:06;;;;;;;;;1.67;1.67;;;;;24.71;56.51;102159.84;6093615;23;45547;-93
2022/07/17 07:01:35;;;;;;;;;1.00;1.00;;;;;24.78;56.21;102167.06;6093059;23;47252;-94
2022/07/17 07:04:02;;;;;;;;;1.00;1.00;;;;;24.88;56.04;102170.72;6094123;23;46193;-94
2022/07/17 07:06:27;;;;;;;;;2.33;2.33;;;;;24.93;55.96;102176.09;6093863;23;45306;-94
2022/07/17 07:08:52;;;;;;;;;1.00;1.00;;;;;25.00;55.96;102180.63;6093046;23;45685;-93
2022/07/17 07:11:17;;;;;;;;;2.00;2.00;;;;;25.05;55.96;102176.22;6116559;23;62584;-93
2022/07/17 07:13:43;;;;;;;;;1.67;1.67;;;;;25.16;55.87;102176.31;6093329;23;45681;-94
2022/07/17 07:16:08;;;;;;;;;2.00;2.00;;;;;25.31;55.63;102180.88;6093029;23;45409;-92
2022/07/17 07:18:33;;;;;;;;;1.33;1.00;;;;;25.40;55.97;102174.69;6115758;23;46428;-90
2022/07/17 07:20:59;;;;;;;;;4.00;3.00;;;;;25.51;55.21;102174.72;6118085;23;45733;-95
2022/07/17 07:23:24;;;;;;;;;1.33;1.33;;;;;25.65;55.66;102180.19;6095487;23;48885;-96
2022/07/17 07:25:50;;;;;;;;;2.67;1.33;;;;;25.72;55.30;102175.72;6218992;22;46111;-89
2022/07/17 07:28:15;;;;;;;;;1.67;1.67;;;;;25.92;55.25;102182.09;6284456;22;45334;-93
2022/07/17 07:30:41;;;;;;;;;2.00;1.00;;;;;26.05;55.32;102183.06;6277681;22;47234;-96
2022/07/17 07:33:07;;;;;;;;;1.00;1.00;;;;;26.15;55.01;102174.13;6278637;22;45393;-92
2022/07/17 07:35:33;;;;;;;;;1.00;0.00;;;;;26.31;54.34;102183.09;6277464;22;45402;-94
2022/07/17 07:37:58;;;;;;;;;1.00;1.00;;;;;26.40;54.14;102175.94;6277622;22;45299;-95
2022/07/17 07:40:24;;;;;;;;;2.00;1.00;;;;;26.46;54.19;102178.69;6304311;22;46956;-94
2022/07/17 07:42:49;;;;;;;;;2.00;2.00;;;;;26.52;53.87;102184.06;6277786;22;45316;-93
2022/07/17 07:45:14;;;;;;;;;2.00;1.67;;;;;26.52;53.72;102183.16;6275151;22;45284;-88
2022/07/17 07:47:46;;;;;;;;;3.33;1.00;;;;;26.53;53.67;102177.78;6300824;22;45741;-88
2022/07/17 07:50:12;;;;;;;;;2.00;2.00;;;;;26.59;53.76;102181.38;6301410;22;45297;-89
2022/07/17 07:52:38;;;;;;;;;3.00;2.00;;;;;26.66;53.78;102176.00;6300071;22;45322;-89
2022/07/17 07:55:04;;;;;;;;;1.33;1.33;;;;;26.78;53.60;102185.88;6301959;22;45367;-88
2022/07/17 07:57:29;;;;;;;;;1.33;0.67;;;;;26.84;53.12;102176.91;6273611;22;45491;-86
2022/07/17 07:59:55;;;;;;;;;1.33;1.33;;;;;26.91;53.38;102180.47;6301310;22;46372;-90
2022/07/17 08:02:20;;;;;;;;;3.33;1.33;;;;;26.94;52.68;102177.78;6271978;22;45242;-89
2022/07/17 08:04:45;;;;;;;;;2.33;2.33;;;;;26.97;53.16;102180.47;6301756;22;50173;-89
2022/07/17 08:07:11;;;;;;;;;1.00;1.00;;;;;26.98;53.00;102174.16;6300490;22;54530;-90
2022/07/17 08:09:36;;;;;;;;;2.00;2.00;;;;;27.05;53.22;102183.16;6287755;22;47195;-89
2022/07/17 08:12:02;;;;;;;;;3.00;2.00;;;;;27.11;52.92;102171.50;6270794;22;45264;-88
2022/07/17 08:14:29;;;;;;;;;1.00;1.00;;;;;27.22;52.46;102185.84;6321520;22;45196;-93
2022/07/17 08:16:54;;;;;;;;;1.00;1.00;;;;;27.32;52.12;102181.34;6276195;22;45176;-93
2022/07/17 08:19:41;;;;;;;;;1.33;1.33;;;;;27.48;52.18;102194.78;6276106;22;47235;-96
2022/07/17 08:22:20;;;;;;;;;1.00;1.00;;;;;27.55;51.89;102182.16;6327750;22;44791;-91
2022/07/17 08:24:45;;;;;;;;;2.00;2.00;;;;;27.61;52.08;102183.94;6266451;22;45384;-96
2022/07/17 08:27:10;;;;;;;;;3.00;1.33;;;;;27.68;51.85;102177.63;6277541;22;45357;-95
2022/07/17 08:29:36;;;;;;;;;2.00;2.00;;;;;27.81;51.51;102193.81;6304548;22;47110;-95
2022/07/17 08:32:01;;;;;;;;;2.00;2.00;;;;;27.91;51.57;102194.66;6302938;22;45350;-94
2022/07/17 08:34:26;;;;;;;;;1.00;1.00;;;;;28.04;50.83;102190.09;6278769;22;45346;-94
2022/07/17 08:36:51;;;;;;;;;1.33;1.33;;;;;28.10;50.93;102185.56;6277617;22;45207;-91
2022/07/17 08:39:17;;;;;;;;;3.00;2.00;;;;;28.20;50.50;102193.59;6275019;22;48692;-92
2022/07/17 08:41:42;;;;;;;;;1.00;1.00;;;;;28.21;50.58;102185.50;6249138;22;45299;-93
2022/07/17 08:44:08;;;;;;;;;2.00;2.00;;;;;28.27;50.28;102180.97;6303120;22;45269;-90
2022/07/17 08:46:39;;;;;;;;;1.00;1.00;;;;;28.36;50.47;102183.59;6274791;22;45643;-92
2022/07/17 08:49:07;;;;;;;;;1.00;1.00;;;;;28.40;49.63;102179.94;6302559;22;46997;-93
2022/07/17 08:51:34;;;;;;;;;0.00;0.00;;;;;28.52;49.59;102176.31;6275356;22;45245;-89
2022/07/17 08:54:00;;;;;;;;;1.67;1.67;;;;;28.59;49.28;102178.94;6302586;22;45436;-92
2022/07/17 08:56:27;;;;;;;;;1.67;1.67;;;;;28.72;49.75;102175.25;6281346;22;45339;-92
2022/07/17 08:58:52;;;;;;;;;1.00;1.00;;;;;28.86;49.97;102190.44;6279466;22;48431;-92
2022/07/17 09:01:19;;;;;;;;;0.00;0.00;;;;;28.99;48.30;102193.91;6304591;22;45308;-92
2022/07/17 09:04:14;;;;;;;;;3.00;2.00;;;;;29.14;49.07;102190.19;6276436;22;45265;-93
2022/07/17 09:06:39;;;;;;;;;3.00;1.67;;;;;29.21;48.93;102186.50;6269914;22;45333;-92
2022/07/17 09:09:09;;;;;;;;;2.00;2.00;;;;;29.30;48.39;102181.94;6274656;22;47027;-92
2022/07/17 09:11:50;;;;;;;;;2.33;2.00;;;;;29.44;48.42;102184.47;6304776;22;45284;-93
2022/07/17 09:14:18;;;;;;;;;1.00;1.00;;;;;29.51;48.01;102188.88;6277656;22;45287;-91
2022/07/17 09:17:01;;;;;;;;;1.00;1.00;;;;;29.61;48.19;102186.94;6274636;22;45589;-91
2022/07/17 09:19:39;;;;;;;;;2.00;2.00;;;;;29.66;47.82;102179.66;6305788;22;46572;-90
2022/07/17 09:22:05;;;;;;;;;1.00;1.00;;;;;29.74;47.59;102185.03;6303477;22;45336;-90
2022/07/17 09:24:49;;;;;;;;;1.67;1.67;;;;;29.91;47.62;102188.41;6302387;22;45490;-90
2022/07/17 09:27:29;;;;;;;;;2.00;2.00;;;;;30.06;47.62;102174.66;6274023;22;45659;-90
2022/07/17 09:30:00;;;;;;;;;2.00;2.00;;;;;30.25;47.64;102185.22;6284441;22;48322;-90
2022/07/17 09:32:29;;;;;;;;;3.00;2.00;;;;;30.40;46.72;102188.66;6305692;22;45340;-92
2022/07/17 09:34:57;;;;;;;;;2.00;2.00;;;;;30.58;45.64;102186.56;6303465;22;45292;-88
2022/07/17 09:37:24;;;;;;;;;2.00;2.00;;;;;30.67;46.73;102184.56;6273785;22;45296;-91
2022/07/17 09:39:51;;;;;;;;;1.00;1.00;;;;;30.88;46.32;102185.13;6299582;22;47418;-87
2022/07/17 09:42:33;;;;;;;;;1.67;1.67;;;;;31.10;45.97;102187.50;6302619;22;45436;-89
2022/07/17 09:45:04;;;;;;;;;0.67;0.67;;;;;31.34;45.78;102187.00;6274704;22;45270;-90
2022/07/17 09:47:31;;;;;;;;;4.33;3.00;;;;;31.51;45.73;102181.25;6299458;22;45266;-91
2022/07/17 09:49:59;;;;;;;;;2.00;2.00;;;;;31.69;45.96;102179.13;6274248;22;47249;-91
2022/07/17 09:52:30;;;;;;;;;1.00;1.00;;;;;31.89;46.07;102188.63;6273494;22;45641;-93
2022/07/17 09:54:57;;;;;;;;;2.00;1.67;;;;;32.06;44.50;102185.50;6276854;22;45300;-91
2022/07/17 09:57:29;;;;;;;;;2.00;1.00;;;;;32.25;44.25;102193.25;6274766;22;45254;-89
2022/07/17 09:59:58;;;;;;;;;2.33;1.00;;;;;32.59;43.68;102190.63;6302229;22;46585;-88
2022/07/17 10:02:24;;;;;;;;;3.00;1.33;;;;;32.90;43.04;102173.56;6301433;22;45479;-89
2022/07/17 10:04:51;;;;;;;;;2.33;2.33;;;;;33.27;43.68;102174.38;6302362;22;45622;-88
2022/07/17 10:07:17;;;;;;;;;1.33;1.33;;;;;33.66;43.78;102175.97;6300320;22;45403;-88
2022/07/17 10:09:43;;;;;;;;;3.67;1.00;;;;;34.15;43.13;102182.66;6301644;22;45401;-90
2022/07/17 10:12:10;;;;;;;;;1.00;1.00;;;;;34.75;42.69;102191.63;6298438;22;45415;-92
2022/07/17 10:14:38;;;;;;;;;1.67;1.67;;;;;35.45;42.22;102183.72;6301614;22;45300;-90
2022/07/17 10:17:11;;;;;;;;;1.33;1.33;;;;;36.57;40.54;102187.50;6300731;22;45404;-90
2022/07/17 10:19:53;;;;;;;;;77.50;63.00;;;;;38.38;41.00;102188.38;6301806;22;45292;-87
2022/07/17 10:22:19;;;;;;;;;241.60;185.60;;;;;40.27;39.11;102190.13;6300076;22;45297;-88
2022/07/17 10:24:46;;;;;;;;;2.33;1.00;;;;;41.83;37.58;102186.09;6302111;22;45348;-87
2022/07/17 10:27:20;;;;;;;;;2.00;0.33;;;;;43.22;36.32;102206.06;6301351;22;45275;-88
2022/07/17 10:29:46;;;;;;;;;68.00;54.75;;;;;44.21;35.24;102209.91;6273068;22;47265;-87
2022/07/17 10:32:19;;;;;;;;;3.00;3.00;;;;;44.67;33.16;102199.00;6302314;22;45492;-89
2022/07/17 10:34:46;;;;;;;;;1.00;1.00;;;;;44.74;33.46;102204.97;6302492;22;45262;-88
2022/07/17 10:37:23;;;;;;;;;3.00;3.00;;;;;45.18;33.54;102213.44;6272484;22;45389;-88
2022/07/17 10:40:14;;;;;;;;;1.33;1.00;;;;;46.34;32.88;102202.19;6276906;22;47533;-93
2022/07/17 10:42:50;;;;;;;;;2.00;2.00;;;;;47.71;31.49;102202.13;6276919;22;45459;-93
2022/07/17 10:45:21;;;;;;;;;2.00;2.00;;;;;48.65;30.97;102210.09;6305106;22;45417;-93
2022/07/17 10:48:08;;;;;;;;;2.00;2.00;;;;;49.41;29.47;102212.03;6305722;22;45364;-94
2022/07/17 10:50:45;;;;;;;;;1.00;1.00;;;;;50.04;29.37;102206.66;6277981;22;47168;-93
2022/07/17 10:53:25;;;;;;;;;1.67;1.67;;;;;50.91;29.17;102208.88;6305084;22;45407;-94
2022/07/17 10:55:56;;;;;;;;;3.67;3.67;;;;;51.94;28.85;102210.81;6277987;22;45318;-93
2022/07/17 10:58:33;;;;;;;;;2.00;2.00;;;;;52.92;27.01;102217.59;6304651;22;45351;-93
2022/07/17 11:01:00;;;;;;;;;2.00;2.00;;;;;53.80;26.57;102211.03;6304062;22;45403;-93
2022/07/17 11:03:27;;;;;;;;;1.00;1.00;;;;;54.51;25.68;102196.91;6277815;22;45287;-93
2022/07/17 11:05:52;;;;;;;;;1.67;1.67;;;;;55.24;25.27;102198.13;6310200;22;45497;-96
2022/07/17 11:08:17;;;;;;;;;1.00;1.00;;;;;55.82;24.86;102204.88;6280134;22;45391;-96
2022/07/17 11:10:43;;;;;;;;;1.00;1.00;;;;;56.35;23.96;102199.91;6278437;22;47135;-94
2022/07/17 11:13:14;;;;;;;;;0.67;0.67;;;;;56.90;24.28;102195.53;6277519;22;45450;-94
2022/07/17 11:15:48;;;;;;;;;0.33;0.00;;;;;57.48;23.77;102203.72;6277871;22;45305;-94
2022/07/17 11:18:19;;;;;;;;;0.00;0.00;;;;;57.89;23.20;102189.72;6277240;22;45246;-95
2022/07/17 11:20:48;;;;;;;;;1.00;1.00;;;;;58.45;23.46;102207.28;6278927;22;47096;-95
2022/07/17 11:23:14;;;;;;;;;1.00;1.00;;;;;58.84;20.85;102195.25;6277159;22;45298;-95
2022/07/17 11:25:39;;;;;;;;;1.00;1.00;;;;;59.14;21.60;102202.28;6277671;22;45465;-96
2022/07/17 11:28:04;;;;;;;;;3.33;2.00;;;;;59.42;22.25;102205.78;6277427;22;45275;-94
2022/07/17 11:30:30;;;;;;;;;0.33;0.33;;;;;59.64;21.15;102189.34;6304643;22;46016;-94